createdAt,value
2023-05-10T00:02:07.757Z,12.60
2023-05-10T00:07:09.408Z,12.47
2023-05-10T00:12:11.125Z,12.05
2023-05-10T00:17:12.753Z,11.94
2023-05-10T00:22:14.366Z,11.78
2023-05-10T00:27:15.973Z,11.67
2023-05-10T00:32:17.628Z,11.41
2023-05-10T00:37:19.306Z,11.49
2023-05-10T00:42:20.906Z,11.03
2023-05-10T00:47:23.726Z,11.14
2023-05-10T00:52:25.749Z,11.12
2023-05-10T00:57:27.832Z,10.92
2023-05-10T01:02:29.730Z,11.00
2023-05-10T01:07:32.283Z,10.89
2023-05-10T01:12:38.126Z,10.65
2023-05-10T01:17:43.460Z,10.80
2023-05-10T01:22:54.185Z,10.56
2023-05-10T01:28:31.135Z,10.93
2023-05-10T01:33:32.740Z,10.51
2023-05-10T01:38:40.443Z,10.44
2023-05-10T01:44:00.312Z,10.62
2023-05-10T01:49:05.082Z,10.28
2023-05-10T01:54:08.103Z,10.36
2023-05-10T01:59:16.246Z,10.38
2023-05-10T02:04:20.421Z,9.94
2023-05-10T02:09:24.227Z,9.93
2023-05-10T02:14:27.995Z,10.05
2023-05-10T02:19:30.698Z,9.76
2023-05-10T02:24:34.733Z,9.53
2023-05-10T02:29:37.528Z,9.49
2023-05-10T02:34:41.231Z,9.30
2023-05-10T02:39:46.516Z,9.33
2023-05-10T02:44:50.485Z,9.35
2023-05-10T02:49:52.313Z,9.22
2023-05-10T02:54:57.188Z,9.04
2023-05-10T02:59:59.437Z,9.12
2023-05-10T03:05:01.196Z,8.81
2023-05-10T03:10:04.265Z,8.67
2023-05-10T03:15:12.726Z,8.61
2023-05-10T03:20:25.676Z,8.80
2023-05-10T03:25:28.024Z,8.78
2023-05-10T03:30:30.720Z,8.89
2023-05-10T03:35:32.399Z,8.66
2023-05-10T03:40:34.147Z,8.60
2023-05-10T03:45:36.620Z,8.63
2023-05-10T03:50:38.338Z,9.04
2023-05-10T03:55:40.063Z,9.21
2023-05-10T04:00:44.826Z,8.92
2023-05-10T04:05:46.876Z,9.11
2023-05-10T04:10:48.700Z,9.38
2023-05-10T04:15:50.344Z,9.69
2023-05-10T04:20:51.942Z,10.26
2023-05-10T04:25:53.662Z,10.47
2023-05-10T04:31:02.627Z,10.87
2023-05-10T04:36:04.907Z,11.86
2023-05-10T04:41:11.102Z,13.07
2023-05-10T04:46:12.999Z,14.16
2023-05-10T04:51:14.696Z,12.69
2023-05-10T04:56:17.078Z,13.33
2023-05-10T05:01:18.793Z,13.14
2023-05-10T05:06:22.083Z,13.19
2023-05-10T05:11:23.963Z,13.52
2023-05-10T05:16:26.562Z,13.73
2023-05-10T05:21:28.265Z,14.16
2023-05-10T05:26:29.898Z,14.67
2023-05-10T05:31:31.787Z,14.53
2023-05-10T05:36:34.910Z,14.73
2023-05-10T05:41:37.578Z,14.60
2023-05-10T05:46:39.261Z,14.61
2023-05-10T05:51:40.867Z,15.00
2023-05-10T05:56:42.563Z,15.17
2023-05-10T06:01:44.206Z,15.51
2023-05-10T06:06:45.852Z,15.74
2023-05-10T06:11:47.804Z,16.24
2023-05-10T06:16:49.481Z,18.81
2023-05-10T06:21:53.159Z,20.77
2023-05-10T06:26:55.473Z,21.51
2023-05-10T06:31:57.143Z,19.78
2023-05-10T06:36:58.918Z,20.06
2023-05-10T06:42:00.703Z,18.81
2023-05-10T06:47:07.442Z,18.89
2023-05-10T06:52:09.073Z,18.00
2023-05-10T06:57:19.437Z,20.15
2023-05-10T07:02:32.017Z,22.03
2023-05-10T07:07:33.684Z,20.89
2023-05-10T07:12:35.313Z,19.47
2023-05-10T07:17:37.053Z,19.35
2023-05-10T07:22:38.788Z,19.12
2023-05-10T07:27:40.434Z,19.45
2023-05-10T07:32:42.961Z,21.88
2023-05-10T07:37:44.681Z,25.94
2023-05-10T07:42:46.321Z,25.20
2023-05-10T07:47:48.074Z,26.71
2023-05-10T07:52:49.768Z,26.56
2023-05-10T07:57:51.455Z,26.72
2023-05-10T08:02:53.200Z,27.73
2023-05-10T08:07:54.854Z,28.88
2023-05-10T08:12:56.505Z,30.19
2023-05-10T08:17:58.164Z,27.09
2023-05-10T08:22:59.842Z,27.78
2023-05-10T08:28:01.452Z,28.45
2023-05-10T08:33:03.131Z,26.49
2023-05-10T08:38:04.812Z,25.94
2023-05-10T08:43:08.625Z,29.19
2023-05-10T08:48:11.460Z,26.85
2023-05-10T08:53:14.529Z,26.71
2023-05-10T08:58:16.438Z,26.16
2023-05-10T09:03:18.938Z,27.75
2023-05-10T09:08:21.216Z,30.43
2023-05-10T09:13:24.438Z,27.44
2023-05-10T09:18:27.884Z,29.32
2023-05-10T09:23:33.310Z,26.86
2023-05-10T09:28:50.424Z,28.36
2023-05-10T09:33:52.929Z,28.08
2023-05-10T09:38:54.573Z,28.14
2023-05-10T09:43:57.452Z,28.20
2023-05-10T09:49:00.204Z,26.67
2023-05-10T09:54:13.947Z,26.98
2023-05-10T09:59:15.681Z,28.25
2023-05-10T10:04:18.004Z,28.13
2023-05-10T10:09:19.861Z,27.33
2023-05-10T10:14:22.968Z,29.11
2023-05-10T10:19:24.636Z,26.48
2023-05-10T10:24:26.246Z,26.18
2023-05-10T10:29:51.539Z,26.07
2023-05-10T10:34:54.856Z,25.13
2023-05-10T10:39:56.631Z,25.24
2023-05-10T10:45:18.782Z,26.28
2023-05-10T10:50:20.807Z,26.38
2023-05-10T10:55:24.656Z,25.37
2023-05-10T11:00:28.409Z,24.95
2023-05-10T11:05:29.995Z,24.98
2023-05-10T11:10:31.611Z,24.89
2023-05-10T11:15:36.631Z,24.44
2023-05-10T11:20:41.711Z,24.12
2023-05-10T11:25:45.354Z,25.00
2023-05-10T11:30:47.178Z,24.46
2023-05-10T11:35:48.868Z,25.74
2023-05-10T11:40:52.868Z,23.89
2023-05-10T11:45:55.816Z,25.27
2023-05-10T11:50:58.936Z,24.01
2023-05-10T11:56:05.185Z,24.77
2023-05-10T12:01:08.656Z,24.74
2023-05-10T12:06:10.425Z,25.61
2023-05-10T12:11:14.735Z,25.18
2023-05-10T12:16:26.273Z,23.72
2023-05-10T12:21:30.125Z,22.48
2023-05-10T12:26:32.289Z,22.47
2023-05-10T12:31:33.996Z,24.26
2023-05-10T12:36:39.671Z,24.16
2023-05-10T12:41:43.463Z,23.62
2023-05-10T12:46:45.390Z,23.27
2023-05-10T12:51:47.085Z,24.08
2023-05-10T12:56:48.714Z,25.29
2023-05-10T13:01:50.335Z,23.45
2023-05-10T13:06:52.086Z,25.17
2023-05-10T13:11:55.316Z,25.37
2023-05-10T13:16:57.098Z,24.21
2023-05-10T13:21:59.092Z,22.55
2023-05-10T13:27:00.957Z,24.57
2023-05-10T13:32:02.769Z,25.24
2023-05-10T13:37:04.368Z,23.92
2023-05-10T13:42:06.119Z,25.21
2023-05-10T13:47:07.810Z,24.20
2023-05-10T13:52:11.128Z,24.05
2023-05-10T13:57:14.903Z,23.56
2023-05-10T14:02:16.655Z,24.01
2023-05-10T14:07:18.949Z,23.81
2023-05-10T14:12:20.544Z,23.09
2023-05-10T14:17:23.223Z,22.58
2023-05-10T14:22:24.991Z,21.96
2023-05-10T14:27:26.632Z,21.18
2023-05-10T14:32:28.961Z,20.87
2023-05-10T14:37:30.625Z,20.66
2023-05-10T14:42:32.340Z,20.88
2023-05-10T14:47:34.178Z,19.79
2023-05-10T14:52:35.992Z,20.08
2023-05-10T14:57:37.644Z,20.70
2023-05-10T15:02:39.411Z,21.50
2023-05-10T15:07:41.403Z,22.04
2023-05-10T15:12:43.080Z,20.73
2023-05-10T15:17:44.890Z,21.10
2023-05-10T15:22:46.596Z,20.82
2023-05-10T15:27:48.251Z,19.89
2023-05-10T15:32:49.897Z,19.80
2023-05-10T15:37:51.599Z,19.55
2023-05-10T15:42:53.200Z,19.69
2023-05-10T15:47:54.829Z,19.74
2023-05-10T15:52:56.416Z,19.77
2023-05-10T15:57:58.018Z,19.74
2023-05-10T16:02:59.981Z,19.75
2023-05-10T16:08:02.388Z,19.84
2023-05-10T16:13:04.137Z,19.93
2023-05-10T16:18:06.104Z,19.80
2023-05-10T16:23:08.102Z,19.98
2023-05-10T16:28:09.805Z,20.00
2023-05-10T16:33:11.478Z,19.65
2023-05-10T16:38:13.215Z,19.42
2023-05-10T16:43:14.814Z,19.65
2023-05-10T16:48:16.812Z,19.62
2023-05-10T16:53:18.414Z,19.07
2023-05-10T16:58:20.006Z,18.88
2023-05-10T17:03:22.308Z,18.67
2023-05-10T17:08:23.978Z,18.60
2023-05-10T17:13:25.586Z,18.43
2023-05-10T17:18:27.318Z,18.44
2023-05-10T17:23:30.236Z,18.26
2023-05-10T17:28:32.517Z,18.08
2023-05-10T17:33:34.179Z,17.82
2023-05-10T17:38:36.639Z,17.74
2023-05-10T17:43:38.250Z,17.56
2023-05-10T17:48:39.913Z,17.34
2023-05-10T17:53:41.807Z,17.62
2023-05-10T17:58:43.699Z,17.38
2023-05-10T18:03:46.331Z,17.45
2023-05-10T18:08:48.171Z,17.08
2023-05-10T18:13:49.823Z,17.33
2023-05-10T18:18:51.494Z,17.13
2023-05-10T18:23:53.252Z,17.08
2023-05-10T18:28:54.854Z,17.00
2023-05-10T18:33:56.508Z,17.11
2023-05-10T18:38:58.177Z,17.24
2023-05-10T18:43:59.799Z,17.00
2023-05-10T18:49:02.668Z,16.85
2023-05-10T18:54:04.543Z,16.68
2023-05-10T18:59:06.349Z,16.62
2023-05-10T19:04:10.844Z,16.39
2023-05-10T19:09:12.549Z,16.28
2023-05-10T19:14:14.267Z,16.24
2023-05-10T19:19:16.199Z,16.14
2023-05-10T19:24:19.612Z,15.88
2023-05-10T19:29:21.262Z,16.10
2023-05-10T19:34:22.950Z,15.85
2023-05-10T19:39:24.604Z,15.71
2023-05-10T19:44:26.589Z,15.70
2023-05-10T19:49:28.234Z,15.69
2023-05-10T19:54:29.941Z,15.29
2023-05-10T19:59:31.585Z,15.15
2023-05-10T20:04:33.974Z,14.69
2023-05-10T20:09:35.602Z,14.79
2023-05-10T20:14:37.248Z,14.67
2023-05-10T20:19:38.843Z,14.31
2023-05-10T20:24:40.443Z,14.43
2023-05-10T20:29:42.138Z,14.48
2023-05-10T20:34:44.210Z,14.17
2023-05-10T20:39:46.381Z,13.91
2023-05-10T20:44:50.007Z,13.84
2023-05-10T20:49:51.668Z,13.80
2023-05-10T20:54:53.290Z,13.79
2023-05-10T20:59:54.995Z,13.36
2023-05-10T21:04:57.946Z,13.23
2023-05-10T21:09:59.910Z,13.14
2023-05-10T21:15:01.564Z,13.00
2023-05-10T21:20:03.766Z,13.13
2023-05-10T21:25:05.885Z,12.97
2023-05-10T21:30:08.171Z,12.71
2023-05-10T21:35:10.039Z,12.70
2023-05-10T21:40:12.897Z,12.61
2023-05-10T21:45:18.041Z,12.41
2023-05-10T21:50:19.903Z,12.64
2023-05-10T21:55:22.546Z,12.44
2023-05-10T22:00:24.186Z,12.47
2023-05-10T22:05:25.786Z,12.08
2023-05-10T22:10:27.469Z,11.96
2023-05-10T22:15:29.165Z,11.91
2023-05-10T22:20:30.867Z,11.80
2023-05-10T22:25:32.492Z,11.93
2023-05-10T22:30:34.104Z,11.82
2023-05-10T22:35:35.960Z,11.81
2023-05-10T22:40:37.559Z,11.71
2023-05-10T22:45:39.410Z,11.79
2023-05-10T22:50:41.132Z,11.70
2023-05-10T22:55:42.771Z,11.76
2023-05-10T23:00:44.506Z,11.77
2023-05-10T23:05:46.293Z,11.86
2023-05-10T23:10:48.087Z,12.10
2023-05-10T23:15:49.767Z,12.20
2023-05-10T23:20:52.926Z,12.30
2023-05-10T23:25:54.571Z,12.25
2023-05-10T23:30:57.512Z,12.18
2023-05-10T23:35:59.174Z,12.19
2023-05-10T23:41:01.053Z,12.09
2023-05-10T23:46:05.316Z,12.06
2023-05-10T23:51:07.015Z,11.67
2023-05-10T23:56:08.639Z,11.54
